Time;durP1;ratioP1;P1;durP2;ratioP2;P2;SDS_P1;SDS_P2;PMS_P1;PMS_P2;Temp;Humidity;BMP_temperature;BMP_pressure;BME280_temperature;BME280_humidity;BME280_pressure;Samples;Min_cycle;Max_cycle;Signal;HPM_P1;HPM_P2
2024/04/17 00:02:06;;;;;;;1.20;0.70;;;;;;;11.84;100.00;98560.10;109143;1254;67236;-55
2024/04/17 00:04:33;;;;;;;1.10;0.50;;;;;;;11.75;100.00;98526.08;109088;1254;72351;-55
2024/04/17 00:07:00;;;;;;;1.80;0.50;;;;;;;11.62;100.00;98531.46;109156;1254;61862;-56
2024/04/17 00:09:28;;;;;;;0.70;0.50;;;;;;;11.48;100.00;98529.09;107537;1256;61082;-55
2024/04/17 00:11:55;;;;;;;0.70;0.50;;;;;;;11.35;100.00;98522.24;106123;1258;74986;-55
2024/04/17 00:14:22;;;;;;;1.20;0.50;;;;;;;11.28;100.00;98534.96;107806;1256;67078;-55
2024/04/17 00:16:48;;;;;;;0.50;0.50;;;;;;;11.20;100.00;98528.36;106076;1254;74061;-55
2024/04/17 00:19:15;;;;;;;1.20;0.70;;;;;;;11.11;100.00;98529.02;106094;1254;61661;-55
2024/04/17 00:21:42;;;;;;;3.00;0.40;;;;;;;11.02;100.00;98537.14;109168;1254;60152;-54
2024/04/17 00:24:09;;;;;;;0.40;0.20;;;;;;;10.89;100.00;98550.23;106098;1262;74218;-55
2024/04/17 00:26:36;;;;;;;0.90;0.20;;;;;;;10.69;100.00;98547.74;106145;1254;67548;-55
2024/04/17 00:29:03;;;;;;;1.50;0.10;;;;;;;10.50;100.00;98570.33;106519;1254;73540;-54
2024/04/17 00:31:30;;;;;;;0.60;0.20;;;;;;;10.28;100.00;98589.55;106066;1255;61221;-55
2024/04/17 00:33:57;;;;;;;1.00;0.30;;;;;;;10.11;100.00;98596.91;106625;1254;62137;-53
2024/04/17 00:36:25;;;;;;;0.30;0.20;;;;;;;9.98;100.00;98593.25;106738;1254;233267;-54
2024/04/17 00:40:32;;;;;;;0.20;0.20;;;;;;;9.80;100.00;98640.83;102744;1292;600418;-53
2024/04/17 00:43:00;;;;;;;0.30;0.10;;;;;;;9.70;100.00;98650.38;105617;1270;60741;-53
2024/04/17 00:45:28;;;;;;;2.80;0.20;;;;;;;9.61;100.00;98628.38;105265;1270;59913;-54
2024/04/17 00:47:54;;;;;;;0.80;0.10;;;;;;;9.50;100.00;98614.59;105595;1270;74975;-54
2024/04/17 00:50:21;;;;;;;1.00;0.20;;;;;;;9.40;100.00;98624.52;105252;1269;66019;-55
2024/04/17 00:52:48;;;;;;;0.40;0.40;;;;;;;9.33;100.00;98625.52;105242;1266;71550;-53
2024/04/17 00:55:15;;;;;;;0.60;0.10;;;;;;;9.27;100.00;98615.10;105340;1263;256549;-54
2024/04/17 00:57:43;;;;;;;0.30;0.10;;;;;;;9.21;100.00;98599.75;105780;1267;59600;-54
2024/04/17 01:00:10;;;;;;;0.50;0.20;;;;;;;9.14;100.00;98535.00;105378;1263;72941;-55
2024/04/17 01:02:37;;;;;;;0.60;0.60;;;;;;;9.12;100.00;98516.17;105534;1265;66360;-54
2024/04/17 01:05:04;;;;;;;0.40;0.20;;;;;;;9.06;100.00;98546.92;105375;1267;72573;-55
2024/04/17 01:07:31;;;;;;;0.90;0.30;;;;;;;9.03;100.00;98561.65;105454;1265;61431;-53
2024/04/17 01:09:58;;;;;;;0.20;0.10;;;;;;;9.00;100.00;98545.54;107447;1264;59295;-53
2024/04/17 01:12:26;;;;;;;1.80;0.20;;;;;;;8.98;100.00;98523.64;105769;1264;73445;-56
2024/04/17 01:14:52;;;;;;;1.20;0.20;;;;;;;8.97;100.00;98515.98;105313;1263;68029;-55
2024/04/17 01:17:19;;;;;;;0.20;0.10;;;;;;;8.97;100.00;98514.05;105339;1268;73364;-55
2024/04/17 01:19:46;;;;;;;0.40;0.20;;;;;;;8.96;100.00;98501.58;105470;1265;61410;-54
2024/04/17 01:22:13;;;;;;;0.30;0.20;;;;;;;8.92;100.00;98494.15;105471;1263;60408;-54
2024/04/17 01:24:39;;;;;;;1.00;0.40;;;;;;;8.91;100.00;98504.27;105530;1265;72706;-54
2024/04/17 01:27:06;;;;;;;0.70;0.40;;;;;;;8.90;100.00;98501.95;105567;1262;67102;-51
2024/04/17 01:29:33;;;;;;;0.40;0.20;;;;;;;8.90;100.00;98490.15;105459;1264;72999;-54
2024/04/17 01:32:00;;;;;;;0.50;0.20;;;;;;;8.91;100.00;98489.75;105593;1265;60643;-55
2024/04/17 01:34:26;;;;;;;1.10;0.20;;;;;;;8.90;100.00;98480.88;105670;1265;60352;-54
2024/04/17 01:36:53;;;;;;;1.10;0.20;;;;;;;8.86;100.00;98474.66;105563;1262;73867;-56
2024/04/17 01:39:20;;;;;;;1.20;0.40;;;;;;;8.85;100.00;98462.57;105550;1265;66921;-56
2024/04/17 01:41:47;;;;;;;0.30;0.30;;;;;;;8.82;100.00;98442.19;105596;1262;73600;-55
2024/04/17 01:44:14;;;;;;;0.30;0.30;;;;;;;8.78;100.00;98452.60;105278;1264;60557;-54
2024/04/17 01:46:43;;;;;;;1.10;0.50;;;;;;;8.73;100.00;98477.23;106200;1265;60491;-54
2024/04/17 01:49:10;;;;;;;0.50;0.30;;;;;;;8.71;100.00;98487.17;105763;1265;74726;-55
2024/04/17 01:51:36;;;;;;;0.30;0.20;;;;;;;8.69;100.00;98486.09;105565;1262;66531;-55
2024/04/17 01:54:03;;;;;;;0.80;0.20;;;;;;;8.62;100.00;98474.31;105647;1262;73666;-55
2024/04/17 01:56:30;;;;;;;0.20;0.10;;;;;;;8.55;100.00;98471.55;105560;1266;61843;-55
2024/04/17 01:58:56;;;;;;;0.20;0.20;;;;;;;8.51;100.00;98482.84;105545;1262;61258;-54
2024/04/17 02:01:23;;;;;;;0.20;0.20;;;;;;;8.51;100.00;98482.89;105468;1270;73738;-55
2024/04/17 02:03:50;;;;;;;0.20;0.20;;;;;;;8.52;100.00;98481.06;105491;1265;67913;-55
2024/04/17 02:06:17;;;;;;;0.20;0.10;;;;;;;8.48;100.00;98483.96;105513;1265;73077;-54
2024/04/17 02:08:43;;;;;;;0.20;0.20;;;;;;;8.46;100.00;98489.24;105571;1265;64372;-54
2024/04/17 02:11:11;;;;;;;0.10;0.10;;;;;;;8.46;100.00;98491.24;105548;1262;60445;-55
2024/04/17 02:13:37;;;;;;;0.10;0.10;;;;;;;8.46;100.00;98497.51;105598;1265;73860;-56
2024/04/17 02:16:05;;;;;;;0.20;0.20;;;;;;;8.45;100.00;98494.34;106552;1261;66507;-55
2024/04/17 02:18:34;;;;;;;5.60;0.20;;;;;;;8.45;100.00;98499.33;105559;1262;71420;-54
2024/04/17 02:21:01;;;;;;;0.30;0.10;;;;;;;8.47;100.00;98501.18;107321;1256;61399;-54
2024/04/17 02:23:28;;;;;;;0.30;0.20;;;;;;;8.46;100.00;98509.48;106226;1256;60474;-54
2024/04/17 02:25:55;;;;;;;0.20;0.10;;;;;;;8.46;100.00;98524.83;106882;1253;74890;-55
2024/04/17 02:28:22;;;;;;;0.10;0.10;;;;;;;8.45;100.00;98521.14;107098;1253;66083;-53
2024/04/17 02:30:49;;;;;;;1.50;0.10;;;;;;;8.43;100.00;98523.26;106143;1254;73688;-55
2024/04/17 02:33:16;;;;;;;1.10;0.20;;;;;;;8.42;100.00;98525.61;106150;1252;60393;-55
2024/04/17 02:35:44;;;;;;;0.20;0.20;;;;;;;8.43;100.00;98523.56;109097;1253;59918;-55
2024/04/17 02:38:11;;;;;;;0.40;0.20;;;;;;;8.45;100.00;98519.86;109265;1252;74106;-54
2024/04/17 02:40:38;;;;;;;0.20;0.20;;;;;;;8.50;100.00;98521.41;109210;1252;70754;-56
2024/04/17 02:43:05;;;;;;;0.90;0.20;;;;;;;8.53;100.00;98514.79;109269;1252;72463;-55
2024/04/17 02:45:31;;;;;;;0.30;0.30;;;;;;;8.52;100.00;98514.10;109153;1252;60180;-54
2024/04/17 02:48:00;;;;;;;1.00;0.30;;;;;;;8.50;100.00;98513.52;109139;1252;60204;-54
2024/04/17 02:50:26;;;;;;;0.30;0.30;;;;;;;8.44;100.00;98513.87;109172;1252;72358;-55
2024/04/17 02:52:53;;;;;;;0.30;0.20;;;;;;;8.37;100.00;98508.77;109262;1252;67001;-56
2024/04/17 02:55:20;;;;;;;0.60;0.40;;;;;;;8.30;100.00;98525.58;109172;1251;72465;-55
2024/04/17 02:57:47;;;;;;;2.30;0.20;;;;;;;8.30;100.00;98537.03;109143;1251;62214;-55
2024/04/17 03:00:16;;;;;;;0.40;0.20;;;;;;;8.31;100.00;98546.08;109305;1252;59153;-54
2024/04/17 03:02:44;;;;;;;0.60;0.30;;;;;;;8.35;100.00;98559.98;109123;1253;74805;-55
2024/04/17 03:05:11;;;;;;;1.60;0.30;;;;;;;8.38;100.00;98571.63;109176;1252;65932;-54
2024/04/17 03:07:37;;;;;;;0.90;0.30;;;;;;;8.39;100.00;98581.39;109160;1253;71320;-54
2024/04/17 03:10:04;;;;;;;0.60;0.30;;;;;;;8.40;100.00;98586.16;109267;1252;61825;-55
2024/04/17 03:12:31;;;;;;;0.40;0.20;;;;;;;8.39;100.00;98586.77;108164;1255;60662;-54
2024/04/17 03:14:58;;;;;;;0.40;0.20;;;;;;;8.40;100.00;98587.27;106164;1256;74347;-53
2024/04/17 03:17:25;;;;;;;1.20;0.20;;;;;;;8.40;100.00;98597.27;106676;1255;67003;-54
2024/04/17 03:19:52;;;;;;;1.20;0.30;;;;;;;8.43;100.00;98599.55;106221;1254;71188;-56
2024/04/17 03:22:19;;;;;;;1.70;0.30;;;;;;;8.47;100.00;98610.80;107003;1254;61956;-53
2024/04/17 03:24:46;;;;;;;0.60;0.20;;;;;;;8.48;100.00;98622.70;107269;1253;60377;-53
2024/04/17 03:27:12;;;;;;;1.90;0.40;;;;;;;8.44;100.00;98618.30;106198;1253;72861;-54
2024/04/17 03:29:39;;;;;;;2.70;0.30;;;;;;;8.40;100.00;98617.95;106099;1256;65909;-55
2024/04/17 03:32:06;;;;;;;0.40;0.30;;;;;;;8.36;100.00;98624.27;106164;1253;75258;-54
2024/04/17 03:34:33;;;;;;;0.70;0.20;;;;;;;8.33;100.00;98643.00;106419;1255;61567;-54
2024/04/17 03:36:59;;;;;;;0.20;0.20;;;;;;;8.32;100.00;98653.44;106133;1256;60509;-55
2024/04/17 03:39:26;;;;;;;0.30;0.30;;;;;;;8.31;100.00;98649.77;106062;1256;74456;-54
2024/04/17 03:41:53;;;;;;;1.00;0.20;;;;;;;8.31;100.00;98644.37;106196;1256;67619;-55
2024/04/17 03:44:20;;;;;;;0.60;0.20;;;;;;;8.34;100.00;98633.47;106163;1259;73438;-55
2024/04/17 03:46:47;;;;;;;0.60;0.40;;;;;;;8.35;100.00;98620.75;107113;1253;61590;-55
2024/04/17 03:49:15;;;;;;;0.90;0.40;;;;;;;8.33;100.00;98619.44;106057;1253;60458;-55
2024/04/17 03:51:41;;;;;;;0.40;0.30;;;;;;;8.29;100.00;98622.31;106419;1254;73209;-54
2024/04/17 03:54:08;;;;;;;0.80;0.20;;;;;;;8.24;100.00;98609.56;106168;1252;68568;-54
2024/04/17 03:56:35;;;;;;;1.50;0.30;;;;;;;8.22;100.00;98617.19;106342;1253;73168;-55
2024/04/17 03:59:02;;;;;;;0.90;0.30;;;;;;;8.22;100.00;98617.52;106174;1253;61766;-54
2024/04/17 04:01:30;;;;;;;0.40;0.30;;;;;;;8.23;100.00;98613.91;106479;1255;60581;-54
2024/04/17 04:03:57;;;;;;;0.70;0.30;;;;;;;8.25;100.00;98607.16;106276;1256;72425;-54
2024/04/17 04:06:24;;;;;;;2.70;0.40;;;;;;;8.25;100.00;98603.04;106118;1256;68595;-54
2024/04/17 04:08:51;;;;;;;1.00;0.40;;;;;;;8.22;100.00;98583.95;106088;1253;72931;-54
2024/04/17 04:11:18;;;;;;;0.50;0.40;;;;;;;8.19;100.00;98574.46;106030;1253;64440;-54
2024/04/17 04:13:45;;;;;;;1.70;0.30;;;;;;;8.15;100.00;98571.33;106051;1256;61954;-53
2024/04/17 04:16:12;;;;;;;0.30;0.30;;;;;;;8.09;100.00;98569.85;106168;1256;74089;-52
2024/04/17 04:18:39;;;;;;;0.40;0.30;;;;;;;8.04;100.00;98567.85;106083;1253;66930;-52
2024/04/17 04:21:06;;;;;;;1.50;0.30;;;;;;;8.02;100.00;98563.29;106238;1253;72556;-51
2024/04/17 04:23:32;;;;;;;0.80;0.50;;;;;;;8.02;100.00;98557.77;106197;1256;61091;-53
2024/04/17 04:26:00;;;;;;;1.80;0.30;;;;;;;7.99;100.00;98555.77;106757;1253;60399;-53
2024/04/17 04:28:27;;;;;;;0.50;0.30;;;;;;;7.98;100.00;98559.20;106270;1255;73978;-51
2024/04/17 04:30:53;;;;;;;0.40;0.20;;;;;;;7.99;100.00;98559.20;106161;1258;65797;-55
2024/04/17 04:33:20;;;;;;;0.60;0.30;;;;;;;7.97;100.00;98555.20;106127;1253;72346;-54
2024/04/17 04:35:47;;;;;;;0.50;0.40;;;;;;;7.95;100.00;98555.45;106081;1253;61326;-50
2024/04/17 04:38:14;;;;;;;0.30;0.30;;;;;;;7.95;100.00;98570.46;106107;1252;61247;-52
2024/04/17 04:40:42;;;;;;;0.40;0.30;;;;;;;7.95;100.00;98571.88;106194;1268;73024;-51
2024/04/17 04:43:10;;;;;;;2.50;0.40;;;;;;;7.94;100.00;98569.80;106644;1253;66516;-50
2024/04/17 04:45:37;;;;;;;0.30;0.30;;;;;;;7.93;100.00;98570.73;106814;1253;70963;-51
2024/04/17 04:48:04;;;;;;;2.00;0.40;;;;;;;7.96;100.00;98559.16;106871;1256;61916;-50
2024/04/17 04:50:36;;;;;;;0.40;0.30;;;;;;;7.97;100.00;98553.36;109085;1253;59806;-51
2024/04/17 04:53:03;;;;;;;0.50;0.40;;;;;;;7.98;100.00;98556.00;108753;1256;73165;-53
2024/04/17 04:55:30;;;;;;;1.10;0.40;;;;;;;7.96;100.00;98562.76;106134;1262;65820;-50
2024/04/17 04:57:57;;;;;;;0.80;0.40;;;;;;;7.94;100.00;98572.48;106350;1253;72557;-51
2024/04/17 05:00:23;;;;;;;1.30;0.30;;;;;;;7.93;100.00;98575.92;106122;1253;61375;-51
2024/04/17 05:02:50;;;;;;;0.30;0.30;;;;;;;7.92;100.00;98579.38;106089;1253;62115;-52
2024/04/17 05:05:17;;;;;;;0.40;0.30;;;;;;;7.94;100.00;98587.50;106476;1253;74920;-51
2024/04/17 05:07:44;;;;;;;0.30;0.30;;;;;;;7.98;100.00;98604.98;106271;1253;66024;-52
2024/04/17 05:10:11;;;;;;;0.90;0.30;;;;;;;8.03;100.00;98614.36;106290;1258;73488;-53
2024/04/17 05:12:38;;;;;;;0.80;0.30;;;;;;;8.08;100.00;98610.65;106129;1253;61307;-53
2024/04/17 05:15:05;;;;;;;1.20;0.30;;;;;;;8.15;100.00;98610.11;106132;1257;61340;-51
2024/04/17 05:17:32;;;;;;;0.70;0.30;;;;;;;8.20;100.00;98598.70;108032;1255;73686;-51
2024/04/17 05:19:59;;;;;;;0.80;0.40;;;;;;;8.26;100.00;98599.43;106989;1255;66980;-54
2024/04/17 05:22:26;;;;;;;1.00;0.60;;;;;;;8.29;100.00;98598.71;106086;1253;73481;-51
2024/04/17 05:24:53;;;;;;;0.40;0.40;;;;;;;8.29;100.00;98599.80;106244;1251;61768;-53
2024/04/17 05:27:19;;;;;;;1.20;0.30;;;;;;;8.29;100.00;98606.23;106100;1254;62030;-52
2024/04/17 05:29:46;;;;;;;0.30;0.30;;;;;;;8.30;100.00;98614.75;106109;1255;75329;-54
2024/04/17 05:32:13;;;;;;;1.10;0.40;;;;;;;8.32;100.00;98615.75;106058;1257;67005;-52
2024/04/17 05:34:41;;;;;;;0.40;0.30;;;;;;;8.34;100.00;98615.94;106038;1253;72433;-52
2024/04/17 05:37:07;;;;;;;2.00;0.40;;;;;;;8.38;100.00;98618.13;106117;1258;63998;-54
2024/04/17 05:39:34;;;;;;;0.90;0.30;;;;;;;8.41;100.00;98626.49;107537;1255;61256;-50
2024/04/17 05:42:02;;;;;;;0.80;0.30;;;;;;;8.42;100.00;98627.31;106073;1253;74363;-51
2024/04/17 05:44:30;;;;;;;0.20;0.20;;;;;;;8.43;100.00;98629.77;109208;1253;66225;-53
2024/04/17 05:46:57;;;;;;;0.60;0.30;;;;;;;8.44;100.00;98635.29;107655;1255;71395;-51
2024/04/17 05:49:24;;;;;;;2.00;0.30;;;;;;;8.44;100.00;98634.90;109301;1252;62619;-52
2024/04/17 05:51:50;;;;;;;1.30;0.30;;;;;;;8.45;100.00;98636.11;109218;1253;60243;-52
2024/04/17 05:54:17;;;;;;;2.00;0.30;;;;;;;8.47;100.00;98639.58;109168;1254;74568;-52
2024/04/17 05:56:44;;;;;;;2.10;0.40;;;;;;;8.45;100.00;98642.35;109307;1253;66196;-52
2024/04/17 05:59:11;;;;;;;0.70;0.40;;;;;;;8.47;100.00;98648.70;109153;1253;72776;-52
2024/04/17 06:01:38;;;;;;;0.40;0.30;;;;;;;8.52;100.00;98649.27;109143;1252;62031;-52
2024/04/17 06:04:05;;;;;;;0.50;0.40;;;;;;;8.57;100.00;98657.20;109297;1252;58983;-51
2024/04/17 06:06:32;;;;;;;0.50;0.40;;;;;;;8.60;100.00;98666.70;109151;1253;76788;-53
2024/04/17 06:08:59;;;;;;;1.10;0.40;;;;;;;8.62;100.00;98672.81;108963;1255;65912;-52
2024/04/17 06:11:26;;;;;;;1.60;0.60;;;;;;;8.65;100.00;98671.08;106761;1253;72283;-52
2024/04/17 06:13:52;;;;;;;3.00;0.40;;;;;;;8.67;100.00;98677.91;109157;1252;60535;-52
2024/04/17 06:16:19;;;;;;;2.40;0.50;;;;;;;8.69;100.00;98688.86;109218;1253;60208;-52
2024/04/17 06:18:46;;;;;;;1.80;0.40;;;;;;;8.71;100.00;98694.29;108015;1255;74613;-52
2024/04/17 06:21:13;;;;;;;0.70;0.50;;;;;;;8.74;100.00;98699.52;106189;1255;68304;-51
2024/04/17 06:23:40;;;;;;;2.10;0.50;;;;;;;8.77;100.00;98700.77;106096;1256;73239;-52
2024/04/17 06:26:06;;;;;;;0.50;0.50;;;;;;;8.78;100.00;98705.17;106157;1252;61192;-51
2024/04/17 06:28:33;;;;;;;0.70;0.40;;;;;;;8.82;100.00;98712.83;106134;1254;61254;-52
2024/04/17 06:31:00;;;;;;;0.50;0.30;;;;;;;8.88;100.00;98719.98;106249;1255;74667;-52
2024/04/17 06:33:27;;;;;;;0.80;0.60;;;;;;;8.93;100.00;98727.38;106150;1253;67337;-53
2024/04/17 06:35:54;;;;;;;0.30;0.20;;;;;;;8.98;100.00;98734.98;106199;1253;73282;-52
2024/04/17 06:38:21;;;;;;;0.20;0.20;;;;;;;8.96;100.00;98737.57;106485;1254;61117;-53
2024/04/17 06:40:48;;;;;;;0.60;0.30;;;;;;;8.94;100.00;98735.54;106296;1253;61922;-54
2024/04/17 06:43:16;;;;;;;0.50;0.20;;;;;;;8.94;100.00;98736.08;106306;1255;75433;-51
2024/04/17 06:45:45;;;;;;;1.90;0.30;;;;;;;8.93;100.00;98740.60;106970;1255;65729;-54
2024/04/17 06:48:13;;;;;;;0.40;0.30;;;;;;;8.90;100.00;98743.52;106167;1253;72577;-53
2024/04/17 06:50:41;;;;;;;0.30;0.20;;;;;;;8.86;100.00;98741.92;106364;1255;61305;-54
2024/04/17 06:53:10;;;;;;;0.40;0.20;;;;;;;8.85;100.00;98740.53;106203;1252;61420;-54
2024/04/17 06:55:38;;;;;;;0.80;0.20;;;;;;;8.87;100.00;98746.35;106197;1256;74917;-52
2024/04/17 06:58:04;;;;;;;0.30;0.30;;;;;;;8.86;100.00;98746.20;106181;1257;65947;-53
2024/04/17 07:00:32;;;;;;;0.40;0.30;;;;;;;8.83;100.00;98748.19;106060;1253;73067;-53
2024/04/17 07:02:59;;;;;;;0.40;0.40;;;;;;;8.76;100.00;98746.80;106242;1259;62008;-51
2024/04/17 07:05:31;;;;;;;1.80;0.40;;;;;;;8.71;100.00;98743.64;105955;1257;61244;-52
2024/04/17 07:07:58;;;;;;;0.50;0.20;;;;;;;8.66;100.00;98741.82;106164;1254;75146;-50
2024/04/17 07:10:24;;;;;;;0.50;0.30;;;;;;;8.59;100.00;98741.50;106007;1256;67830;-50
2024/04/17 07:12:51;;;;;;;0.30;0.30;;;;;;;8.52;100.00;98736.73;106046;1257;73637;-53
2024/04/17 07:15:18;;;;;;;1.20;0.30;;;;;;;8.45;100.00;98731.75;106058;1271;61668;-51
2024/04/17 07:17:45;;;;;;;0.40;0.20;;;;;;;8.38;100.00;98727.30;106128;1256;61225;-52
2024/04/17 07:20:15;;;;;;;0.40;0.30;;;;;;;8.31;100.00;98722.84;106070;1263;74963;-51
2024/04/17 07:22:42;;;;;;;1.80;0.40;;;;;;;8.26;100.00;98723.24;106267;1253;67846;-51
2024/04/17 07:25:10;;;;;;;0.40;0.40;;;;;;;8.23;100.00;98722.95;106837;1251;71461;-51
2024/04/17 07:27:40;;;;;;;1.00;0.40;;;;;;;8.19;100.00;98723.70;106098;1257;61180;-51
2024/04/17 07:30:07;;;;;;;0.80;0.50;;;;;;;8.16;100.00;98723.48;106149;1258;61030;-54
2024/04/17 07:32:34;;;;;;;0.90;0.50;;;;;;;8.16;100.00;98722.98;106115;1256;73739;-49
2024/04/17 07:35:01;;;;;;;0.80;0.40;;;;;;;8.17;100.00;98717.32;106064;1257;66967;-51
2024/04/17 07:37:31;;;;;;;0.50;0.50;;;;;;;8.21;100.00;98719.45;106343;1253;73458;-50
2024/04/17 07:39:58;;;;;;;0.50;0.50;;;;;;;8.27;100.00;98714.63;106303;1258;61322;-52
2024/04/17 07:42:24;;;;;;;1.00;0.50;;;;;;;8.34;100.00;98715.36;106139;1256;62035;-49
2024/04/17 07:44:51;;;;;;;0.90;0.60;;;;;;;8.39;100.00;98708.50;106113;1264;74934;-50
2024/04/17 07:47:19;;;;;;;0.70;0.70;;;;;;;8.43;100.00;98706.13;106167;1256;66958;-54
2024/04/17 07:49:45;;;;;;;0.90;0.50;;;;;;;8.43;100.00;98703.29;106379;1253;71559;-51
2024/04/17 07:52:12;;;;;;;1.10;0.50;;;;;;;8.42;100.00;98702.98;106309;1256;61305;-54
2024/04/17 07:54:40;;;;;;;2.40;0.50;;;;;;;8.42;100.00;98702.41;106093;1258;61373;-55
2024/04/17 07:57:07;;;;;;;0.50;0.40;;;;;;;8.42;100.00;98698.69;106267;1257;73758;-51
2024/04/17 07:59:33;;;;;;;1.10;0.50;;;;;;;8.41;100.00;98698.56;106125;1253;67431;-52
2024/04/17 08:02:00;;;;;;;0.70;0.50;;;;;;;8.40;100.00;98699.35;106104;1267;72607;-54
2024/04/17 08:04:27;;;;;;;0.70;0.50;;;;;;;8.34;100.00;98695.67;106207;1258;61267;-50
2024/04/17 08:06:54;;;;;;;2.30;0.50;;;;;;;8.30;100.00;98693.40;106211;1268;61228;-51
2024/04/17 08:09:21;;;;;;;1.00;0.50;;;;;;;8.26;100.00;98690.37;106100;1255;75360;-51
2024/04/17 08:11:48;;;;;;;1.60;0.60;;;;;;;8.25;100.00;98689.76;106562;1253;68264;-50
2024/04/17 08:14:14;;;;;;;0.60;0.50;;;;;;;8.24;100.00;98690.71;106156;1256;73409;-51
2024/04/17 08:16:41;;;;;;;0.60;0.60;;;;;;;8.23;100.00;98682.73;106173;1256;61538;-55
2024/04/17 08:19:12;;;;;;;1.50;0.80;;;;;;;8.24;100.00;98684.80;109163;1253;60127;-52
2024/04/17 08:21:39;;;;;;;2.80;0.90;;;;;;;8.24;100.00;98684.99;106951;1256;75683;-51
2024/04/17 08:24:06;;;;;;;1.30;0.80;;;;;;;8.23;100.00;98684.67;106224;1255;66797;-53
2024/04/17 08:26:32;;;;;;;2.20;0.90;;;;;;;8.22;100.00;98680.63;109166;1253;72898;-51
2024/04/17 08:28:59;;;;;;;1.00;0.70;;;;;;;8.20;100.00;98678.79;109202;1251;60505;-52
2024/04/17 08:31:26;;;;;;;0.70;0.40;;;;;;;8.16;100.00;98682.36;109128;1253;60416;-53
2024/04/17 08:33:53;;;;;;;1.00;0.60;;;;;;;8.11;100.00;98683.02;109237;1255;73711;-54
2024/04/17 08:36:20;;;;;;;2.20;0.40;;;;;;;8.08;100.00;98685.73;109295;1255;64763;-54
2024/04/17 08:38:47;;;;;;;2.10;0.50;;;;;;;8.06;100.00;98690.27;108827;1253;72851;-52
2024/04/17 08:41:14;;;;;;;0.90;0.40;;;;;;;8.07;100.00;98691.83;106199;1257;61209;-53
2024/04/17 08:43:41;;;;;;;0.50;0.50;;;;;;;8.07;100.00;98695.75;106196;1257;61353;-55
2024/04/17 08:46:07;;;;;;;0.90;0.50;;;;;;;8.07;100.00;98698.83;106166;1255;75652;-56
2024/04/17 08:48:34;;;;;;;1.00;0.60;;;;;;;8.05;100.00;98701.44;106176;1256;65588;-54
2024/04/17 08:51:01;;;;;;;1.40;0.50;;;;;;;7.97;100.00;98699.33;106200;1256;73024;-56
2024/04/17 08:53:28;;;;;;;0.90;0.50;;;;;;;7.88;100.00;98701.60;106073;1260;61469;-54
2024/04/17 08:55:55;;;;;;;1.00;0.40;;;;;;;7.82;100.00;98700.70;106129;1253;62047;-54
2024/04/17 08:58:22;;;;;;;1.20;0.40;;;;;;;7.77;100.00;98701.69;106230;1258;73562;-53
2024/04/17 09:00:50;;;;;;;0.90;0.40;;;;;;;7.72;100.00;98702.48;106929;1253;66851;-52
2024/04/17 09:03:20;;;;;;;1.40;0.40;;;;;;;7.70;100.00;98701.54;107724;1256;72927;-53
2024/04/17 09:05:48;;;;;;;1.60;0.50;;;;;;;7.68;100.00;98700.40;106564;1256;61374;-54
2024/04/17 09:08:17;;;;;;;0.40;0.30;;;;;;;7.64;100.00;98698.64;106155;1258;61052;-52
2024/04/17 09:10:43;;;;;;;0.90;0.40;;;;;;;7.63;100.00;98701.05;106221;1253;74560;-55
2024/04/17 09:13:10;;;;;;;2.10;0.40;;;;;;;7.63;100.00;98699.92;106204;1257;67165;-56
2024/04/17 09:15:37;;;;;;;1.60;0.50;;;;;;;7.60;100.00;98701.67;106666;1256;72448;-55
2024/04/17 09:18:08;;;;;;;0.80;0.40;;;;;;;7.57;100.00;98699.66;106254;1267;61257;-53
2024/04/17 09:20:35;;;;;;;1.00;0.40;;;;;;;7.58;100.00;98699.83;106733;1252;61350;-53
2024/04/17 09:23:08;;;;;;;2.30;0.50;;;;;;;7.58;100.00;98694.84;106515;1258;74446;-51
2024/04/17 09:25:35;;;;;;;0.60;0.50;;;;;;;7.59;100.00;98699.61;106856;1260;68183;-53
2024/04/17 09:28:02;;;;;;;0.50;0.50;;;;;;;7.61;100.00;98697.16;106283;1264;72595;-54
2024/04/17 09:30:29;;;;;;;0.60;0.50;;;;;;;7.67;100.00;98702.39;106105;1254;62136;-53
2024/04/17 09:32:56;;;;;;;3.20;0.60;;;;;;;7.68;100.00;98699.64;106584;1256;60617;-53
2024/04/17 09:35:23;;;;;;;1.20;0.60;;;;;;;7.67;100.00;98705.27;106189;1257;72968;-54
2024/04/17 09:37:50;;;;;;;1.90;0.60;;;;;;;7.64;100.00;98710.41;106136;1257;66624;-52
2024/04/17 09:40:17;;;;;;;1.40;0.40;;;;;;;7.66;100.00;98715.31;106062;1267;71829;-54
2024/04/17 09:42:44;;;;;;;1.00;0.60;;;;;;;7.67;100.00;98727.07;106155;1256;62280;-55
2024/04/17 09:45:14;;;;;;;1.10;0.50;;;;;;;7.64;100.00;98735.09;106411;1253;61215;-53
2024/04/17 09:47:43;;;;;;;1.30;0.50;;;;;;;7.61;100.00;98735.92;106228;1252;74748;-52
2024/04/17 09:50:14;;;;;;;1.20;0.60;;;;;;;7.57;100.00;98743.79;106472;1256;67047;-53
2024/04/17 09:52:41;;;;;;;1.80;0.50;;;;;;;7.54;100.00;98744.51;106262;1254;71245;-56
2024/04/17 09:55:08;;;;;;;1.00;0.50;;;;;;;7.51;100.00;98746.26;106014;1257;61318;-55
2024/04/17 09:57:35;;;;;;;1.20;0.50;;;;;;;7.48;100.00;98740.51;106473;1256;61372;-53
2024/04/17 10:00:04;;;;;;;4.00;0.60;;;;;;;7.49;100.00;98740.10;105993;1259;74408;-54
2024/04/17 10:02:31;;;;;;;1.20;0.50;;;;;;;7.54;100.00;98746.13;106398;1256;67241;-53
2024/04/17 10:04:58;;;;;;;2.00;0.60;;;;;;;7.59;100.00;98748.34;106474;1256;71353;-51
2024/04/17 10:07:26;;;;;;;1.10;0.50;;;;;;;7.65;100.00;98749.45;106065;1259;61227;-54
2024/04/17 10:09:53;;;;;;;0.80;0.60;;;;;;;7.71;100.00;98757.52;106372;1257;62130;-53
2024/04/17 10:12:20;;;;;;;1.10;0.50;;;;;;;7.78;100.00;98752.36;106079;1253;72769;-51
2024/04/17 10:14:47;;;;;;;2.00;0.40;;;;;;;7.84;100.00;98756.67;106163;1254;67142;-53
2024/04/17 10:17:14;;;;;;;2.20;0.50;;;;;;;7.88;100.00;98756.46;106253;1256;73243;-51
2024/04/17 10:20:00;;;;;;;1.00;0.50;;;;;;;7.93;100.00;98755.65;106513;1257;62944;-52
2024/04/17 10:22:29;;;;;;;0.60;0.50;;;;;;;7.95;100.00;98750.52;106340;1254;60181;-54
2024/04/17 10:25:05;;;;;;;0.70;0.50;;;;;;;7.98;100.00;98741.82;106410;1257;74767;-51
2024/04/17 10:27:35;;;;;;;2.00;0.50;;;;;;;8.04;100.00;98742.59;106633;1256;67173;-52
2024/04/17 10:30:09;;;;;;;0.70;0.30;;;;;;;8.11;100.00;98744.67;106364;1267;73020;-55
2024/04/17 10:32:37;;;;;;;1.80;0.50;;;;;;;8.15;100.00;98740.71;106184;1257;62856;-54
2024/04/17 10:35:13;;;;;;;3.20;0.60;;;;;;;8.19;100.00;98744.92;106341;1255;62309;-52
2024/04/17 10:37:40;;;;;;;1.00;0.40;;;;;;;8.32;100.00;98747.85;106347;1256;73337;-52
2024/04/17 10:40:09;;;;;;;1.10;0.60;;;;;;;8.43;100.00;98747.41;106255;1260;69262;-54
2024/04/17 10:42:36;;;;;;;1.10;0.50;;;;;;;8.52;100.00;98749.73;106285;1259;72589;-52
2024/04/17 10:45:04;;;;;;;0.90;0.60;;;;;;;8.54;100.00;98753.94;106384;1257;62304;-52
2024/04/17 10:47:32;;;;;;;1.20;0.50;;;;;;;8.53;100.00;98756.51;106388;1257;61339;-55
2024/04/17 10:50:00;;;;;;;0.80;0.60;;;;;;;8.51;100.00;98758.77;106251;1266;74862;-52
2024/04/17 10:52:29;;;;;;;0.50;0.40;;;;;;;8.55;100.00;98767.15;106391;1257;67012;-52
2024/04/17 10:54:59;;;;;;;1.60;0.50;;;;;;;8.60;100.00;98767.73;106368;1257;72465;-51
2024/04/17 10:57:29;;;;;;;1.10;0.40;;;;;;;8.63;100.00;98775.42;106303;1264;59925;-54
2024/04/17 10:59:55;;;;;;;1.30;0.40;;;;;;;8.63;100.00;98782.93;106529;1256;61267;-51
2024/04/17 11:02:23;;;;;;;1.80;0.50;;;;;;;8.60;100.00;98783.27;106232;1272;74567;-49
2024/04/17 11:04:50;;;;;;;1.50;0.50;;;;;;;8.60;100.00;98784.35;106437;1257;66836;-51
2024/04/17 11:07:17;;;;;;;2.30;0.50;;;;;;;8.60;100.00;98785.05;107126;1261;73532;-53
2024/04/17 11:09:47;;;;;;;1.10;0.70;;;;;;;8.60;100.00;98793.67;106302;1254;61539;-51
2024/04/17 11:12:15;;;;;;;0.40;0.40;;;;;;;8.62;100.00;98791.56;106344;1257;61182;-52
2024/04/17 11:14:42;;;;;;;0.90;0.40;;;;;;;8.66;100.00;98785.45;106108;1257;74593;-51
2024/04/17 11:17:09;;;;;;;1.30;0.40;;;;;;;8.66;100.00;98782.95;106208;1254;66564;-52
2024/04/17 11:19:37;;;;;;;3.40;0.40;;;;;;;8.67;100.00;98788.82;109134;1251;71645;-53
2024/04/17 11:22:10;;;;;;;0.60;0.40;;;;;;;8.63;100.00;98789.23;106357;1266;61266;-53
2024/04/17 11:24:37;;;;;;;1.90;0.40;;;;;;;8.54;100.00;98793.81;107263;1257;61294;-51
2024/04/17 11:27:07;;;;;;;0.40;0.30;;;;;;;8.50;100.00;98804.80;106105;1272;74569;-54